WMKK/KUL METAR and TAF weather

Enter ICAO airport designator
Station Type Date Time Source
WMKK METAR 2021/04/14 19:00 UTC NOAA

WMKK 141900Z VRB02KT 9000 FEW017CB 25/23 Q1010 NOSIG


Station Type Date Time Source
WMKK Decoded METAR 2021/04/14 19:00 UTC NOAA

Sepang/KL International Airport, Malaysia (WMKK) 02-44N 101-42E 22M
Apr 14, 2021 - 03:00 PM EDT / 2021.04.14 1900 UTC
Wind: Variable at 2 MPH (2 KT):0
Visibility: 5 mile(s):0
Sky conditions: mostly clear
Weather: Cumulonimbus clouds observed
Temperature: 77 F (25 C)
Dew Point: 73 F (23 C)
Relative Humidity: 88%
Pressure (altimeter): 29.83 in. Hg (1010 hPa)
ob: WMKK 141900Z VRB02KT 9000 FEW017CB 25/23 Q1010 NOSIG
cycle: 19

Station Type Date Time Source
WMKK TAF 2021/04/14 18:11 UTC NOAA

TAF WMKK 141700Z 1418/1600 02005KT 9000 FEW030
TEMPO 1508/1512 25010KT 4000 TSRA FEW017CB SCT018

Example: see airport list